臺北終端管制區 - 桃園北區雷達席

METAR RCTP 130800Z 34006KT 300V360 9999 FEW015 BKN050 BKN080 32/28 Q1011 NOSIG RMK A2986=

站台狀態:Online
最後更新:2020-08-13 16:00:01